createdAt,value
2023-04-11T00:00:51.615Z,42
2023-04-11T00:01:57.763Z,42
2023-04-11T00:03:03.848Z,42
2023-04-11T00:04:09.957Z,42
2023-04-11T00:05:16.123Z,42
2023-04-11T00:06:22.188Z,42
2023-04-11T00:07:28.308Z,42
2023-04-11T00:08:34.418Z,42
2023-04-11T00:09:40.528Z,42
2023-04-11T00:10:45.667Z,42
2023-04-11T00:11:51.768Z,42
2023-04-11T00:12:57.894Z,42
2023-04-11T00:14:04.001Z,42
2023-04-11T00:15:10.111Z,42
2023-04-11T00:16:16.226Z,42
2023-04-11T00:17:22.347Z,42
2023-04-11T00:18:27.487Z,42
2023-04-11T00:19:32.607Z,42
2023-04-11T00:20:37.741Z,42
2023-04-11T00:21:42.878Z,42
2023-04-11T00:22:48.990Z,42
2023-04-11T00:23:55.101Z,42
2023-04-11T00:25:01.224Z,42
2023-04-11T00:26:07.333Z,42
2023-04-11T00:27:13.449Z,42
2023-04-11T00:28:19.556Z,42
2023-04-11T00:29:25.681Z,42
2023-04-11T00:30:31.776Z,42
2023-04-11T00:31:37.892Z,42
2023-04-11T00:32:44.022Z,42
2023-04-11T00:33:50.126Z,42
2023-04-11T00:34:56.254Z,42
2023-04-11T00:36:01.388Z,42
2023-04-11T00:37:07.488Z,42
2023-04-11T00:38:13.598Z,42
2023-04-11T00:39:19.710Z,42
2023-04-11T00:40:25.825Z,42
2023-04-11T00:41:31.941Z,42
2023-04-11T00:42:38.083Z,42
2023-04-11T00:43:43.186Z,42
2023-04-11T00:44:48.316Z,42
2023-04-11T00:45:54.420Z,42
2023-04-11T00:47:00.563Z,42
2023-04-11T00:48:06.657Z,42
2023-04-11T00:49:12.768Z,42
2023-04-11T00:50:18.882Z,42
2023-04-11T00:51:24.994Z,42
2023-04-11T00:52:31.119Z,42
2023-04-11T00:53:37.274Z,42
2023-04-11T00:54:43.348Z,42
2023-04-11T00:55:49.458Z,42
2023-04-11T00:56:55.570Z,42
2023-04-11T00:58:01.691Z,42
2023-04-11T00:59:06.816Z,42
2023-04-11T01:00:12.928Z,42
2023-04-11T01:01:19.051Z,42
2023-04-11T01:02:25.154Z,42
2023-04-11T01:03:31.271Z,42
2023-04-11T01:04:37.379Z,42
2023-04-11T01:05:43.499Z,42
2023-04-11T01:06:48.642Z,42
2023-04-11T01:07:53.765Z,42
2023-04-11T01:08:58.908Z,42
2023-04-11T01:10:04.037Z,42
2023-04-11T01:11:10.153Z,42
2023-04-11T01:12:15.283Z,42
2023-04-11T01:13:21.386Z,42
2023-04-11T01:14:27.517Z,42
2023-04-11T01:15:33.627Z,42
2023-04-11T01:16:39.741Z,42
2023-04-11T01:17:45.858Z,42
2023-04-11T01:18:51.973Z,42
2023-04-11T01:19:58.079Z,42
2023-04-11T01:21:04.203Z,42
2023-04-11T01:22:10.317Z,42
2023-04-11T01:23:16.424Z,42
2023-04-11T01:24:22.776Z,42
2023-04-11T01:25:28.652Z,42
2023-04-11T01:26:33.797Z,42
2023-04-11T01:27:39.898Z,42
2023-04-11T01:28:46.010Z,42
2023-04-11T01:29:52.132Z,42
2023-04-11T01:30:58.237Z,42
2023-04-11T01:32:03.375Z,42
2023-04-11T01:33:08.510Z,42
2023-04-11T01:34:13.641Z,42
2023-04-11T01:35:18.772Z,42
2023-04-11T01:36:24.884Z,42
2023-04-11T01:38:37.116Z,42
2023-04-11T01:39:43.230Z,42
2023-04-11T01:40:49.344Z,42
2023-04-11T01:41:55.448Z,42
2023-04-11T01:43:01.562Z,42
2023-04-11T01:44:07.678Z,42
2023-04-11T01:45:13.797Z,42
2023-04-11T01:46:19.901Z,42
2023-04-11T01:47:26.018Z,42
2023-04-11T01:48:32.140Z,42
2023-04-11T01:49:37.262Z,42
2023-04-11T01:50:43.378Z,42
2023-04-11T01:51:49.492Z,42
2023-04-11T01:52:55.607Z,42
2023-04-11T01:54:01.717Z,42
2023-04-11T01:55:07.828Z,42
2023-04-11T01:56:13.940Z,42
2023-04-11T01:57:20.064Z,42
2023-04-11T01:58:25.201Z,42
2023-04-11T02:00:36.432Z,42
2023-04-11T02:01:42.547Z,42
2023-04-11T02:02:47.687Z,42
2023-04-11T02:03:52.810Z,42
2023-04-11T02:04:58.926Z,42
2023-04-11T02:06:05.055Z,42
2023-04-11T02:07:11.157Z,42
2023-04-11T02:08:17.273Z,42
2023-04-11T02:09:23.428Z,42.5
2023-04-11T02:10:29.502Z,42.5
2023-04-11T02:11:35.605Z,42.5
2023-04-11T02:12:41.745Z,42.5
2023-04-11T02:13:47.848Z,42.5
2023-04-11T02:14:53.952Z,42.5
2023-04-11T02:16:00.074Z,42
2023-04-11T02:17:06.183Z,42
2023-04-11T02:18:11.315Z,42
2023-04-11T02:19:17.416Z,42
2023-04-11T02:20:23.551Z,42
2023-04-11T02:21:29.653Z,42
2023-04-11T02:22:35.768Z,42
2023-04-11T02:23:41.882Z,41.5
2023-04-11T02:24:48.001Z,41.5
2023-04-11T02:25:53.138Z,41.5
2023-04-11T02:26:58.259Z,41.5
2023-04-11T02:28:04.383Z,41.5
2023-04-11T02:29:09.510Z,41.5
2023-04-11T02:30:14.657Z,41.5
2023-04-11T02:31:20.761Z,41.5
2023-04-11T02:32:26.872Z,41.5
2023-04-11T02:33:32.981Z,41
2023-04-11T02:34:39.104Z,41
2023-04-11T02:35:45.220Z,41
2023-04-11T02:36:51.324Z,41
2023-04-11T02:37:57.438Z,41
2023-04-11T02:39:03.559Z,41
2023-04-11T02:41:15.796Z,41
2023-04-11T02:42:21.899Z,41
2023-04-11T02:43:28.015Z,41
2023-04-11T02:44:33.135Z,41
2023-04-11T02:45:39.250Z,41
2023-04-11T02:46:45.378Z,41
2023-04-11T02:47:51.486Z,41
2023-04-11T02:48:57.602Z,41
2023-04-11T02:50:03.712Z,41
2023-04-11T02:51:09.828Z,41
2023-04-11T02:52:15.937Z,41
2023-04-11T02:53:21.072Z,41
2023-04-11T02:54:26.221Z,41.5
2023-04-11T02:55:32.315Z,41.5
2023-04-11T02:56:38.437Z,41.5
2023-04-11T02:57:44.545Z,41.5
2023-04-11T02:58:50.650Z,41.5
2023-04-11T02:59:56.765Z,41.5
2023-04-11T03:01:02.884Z,41.5
2023-04-11T03:02:09.006Z,41.5
2023-04-11T03:03:15.120Z,41.5
2023-04-11T03:04:21.224Z,41.5
2023-04-11T03:05:27.342Z,41.5
2023-04-11T03:06:33.457Z,41.5
2023-04-11T03:07:39.588Z,41.5
2023-04-11T03:08:44.700Z,41.5
2023-04-11T03:09:50.811Z,41.5
2023-04-11T03:10:56.929Z,41.5
2023-04-11T03:12:03.046Z,41.5
2023-04-11T03:13:09.150Z,41.5
2023-04-11T03:14:15.265Z,41.5
2023-04-11T03:15:21.387Z,41.5
2023-04-11T03:16:26.517Z,41.5
2023-04-11T03:17:31.642Z,41.5
2023-04-11T03:18:36.795Z,41.5
2023-04-11T03:19:41.923Z,41.5
2023-04-11T03:20:48.033Z,41.5
2023-04-11T03:21:53.161Z,41.5
2023-04-11T03:22:58.298Z,41.5
2023-04-11T03:24:04.414Z,41.5
2023-04-11T03:25:10.533Z,41.5
2023-04-11T03:26:16.649Z,41.5
2023-04-11T03:27:22.760Z,41.5
2023-04-11T03:28:28.876Z,41.5
2023-04-11T03:29:34.990Z,41.5
2023-04-11T03:30:41.100Z,41.5
2023-04-11T03:31:47.207Z,41.5
2023-04-11T03:32:53.329Z,41.5
2023-04-11T03:33:59.441Z,41.5
2023-04-11T03:35:05.559Z,41.5
2023-04-11T03:36:11.672Z,41.5
2023-04-11T03:37:17.786Z,41.5
2023-04-11T03:38:22.918Z,41.5
2023-04-11T03:39:29.028Z,41.5
2023-04-11T03:40:35.141Z,41.5
2023-04-11T03:41:41.259Z,41.5
2023-04-11T03:42:47.363Z,41.5
2023-04-11T03:43:53.490Z,41.5
2023-04-11T03:44:58.619Z,41.5
2023-04-11T03:46:03.749Z,41.5
2023-04-11T03:47:09.864Z,41.5
2023-04-11T03:48:15.959Z,41.5
2023-04-11T03:49:21.110Z,41.5
2023-04-11T03:50:26.244Z,41.5
2023-04-11T03:51:32.356Z,41.5
2023-04-11T03:52:38.467Z,41.5
2023-04-11T03:53:44.584Z,41.5
2023-04-11T03:54:50.699Z,41.5
2023-04-11T03:55:56.813Z,41.5
2023-04-11T03:57:02.923Z,41.5
2023-04-11T03:58:09.034Z,41.5
2023-04-11T03:59:15.149Z,42
2023-04-11T04:00:21.253Z,42
2023-04-11T04:01:27.372Z,42
2023-04-11T04:02:33.486Z,42
2023-04-11T04:03:39.622Z,42
2023-04-11T04:04:44.728Z,42
2023-04-11T04:05:50.845Z,42
2023-04-11T04:06:56.969Z,42
2023-04-11T04:08:03.077Z,42
2023-04-11T04:09:09.189Z,42
2023-04-11T04:10:15.314Z,42
2023-04-11T04:11:21.415Z,42
2023-04-11T04:12:26.559Z,42
2023-04-11T04:13:31.677Z,42
2023-04-11T04:14:36.803Z,42
2023-04-11T04:15:41.951Z,42
2023-04-11T04:16:48.047Z,42
2023-04-11T04:17:54.172Z,42
2023-04-11T04:19:00.286Z,42
2023-04-11T04:20:06.410Z,42
2023-04-11T04:21:12.524Z,42
2023-04-11T04:22:18.627Z,42
2023-04-11T04:23:24.745Z,42
2023-04-11T04:24:30.847Z,42
2023-04-11T04:25:36.967Z,42
2023-04-11T04:26:43.091Z,42
2023-04-11T04:27:49.249Z,42
2023-04-11T04:28:55.320Z,42
2023-04-11T04:30:00.465Z,42
2023-04-11T04:31:06.550Z,42
2023-04-11T04:32:12.659Z,42
2023-04-11T04:33:18.784Z,42
2023-04-11T04:34:24.897Z,42
2023-04-11T04:35:31.010Z,42
2023-04-11T04:36:37.143Z,42
2023-04-11T04:37:42.254Z,42
2023-04-11T04:38:47.394Z,42
2023-04-11T04:39:53.512Z,42
2023-04-11T04:40:58.637Z,42
2023-04-11T04:42:03.768Z,42
2023-04-11T04:43:09.902Z,42
2023-04-11T04:44:16.000Z,42
2023-04-11T04:45:22.110Z,42
2023-04-11T04:46:28.234Z,42
2023-04-11T04:47:34.368Z,42
2023-04-11T04:48:40.451Z,42
2023-04-11T04:49:46.573Z,42
2023-04-11T04:50:52.910Z,42
2023-04-11T04:51:58.798Z,42
2023-04-11T04:53:03.937Z,42
2023-04-11T04:54:10.045Z,42
2023-04-11T04:55:16.151Z,42
2023-04-11T04:56:22.278Z,42
2023-04-11T04:57:28.394Z,42
2023-04-11T04:58:34.509Z,42
2023-04-11T04:59:40.618Z,42
2023-04-11T05:00:46.752Z,42
2023-04-11T05:01:52.838Z,42
2023-04-11T05:02:58.961Z,42
2023-04-11T05:04:04.080Z,42
2023-04-11T05:05:09.220Z,42
2023-04-11T05:06:15.335Z,42
2023-04-11T05:07:21.450Z,42
2023-04-11T05:08:27.563Z,42
2023-04-11T05:09:33.681Z,42
2023-04-11T05:10:39.790Z,42
2023-04-11T05:11:45.908Z,42
2023-04-11T05:12:52.022Z,42
2023-04-11T05:13:58.128Z,42
2023-04-11T05:15:04.248Z,42
2023-04-11T05:16:10.367Z,42
2023-04-11T05:17:16.475Z,42
2023-04-11T05:18:22.591Z,42
2023-04-11T05:19:27.715Z,42
2023-04-11T05:20:33.841Z,42
2023-04-11T05:21:39.948Z,42
2023-04-11T05:22:46.062Z,42
2023-04-11T05:23:52.175Z,42
2023-04-11T05:24:58.286Z,42
2023-04-11T05:26:04.403Z,42
2023-04-11T05:27:10.520Z,42
2023-04-11T05:28:15.669Z,42
2023-04-11T05:29:20.790Z,42
2023-04-11T05:30:25.920Z,42
2023-04-11T05:31:31.050Z,42
2023-04-11T05:32:37.156Z,42
2023-04-11T05:33:42.304Z,42
2023-04-11T05:34:47.421Z,42
2023-04-11T05:35:53.538Z,42
2023-04-11T05:36:59.664Z,42
2023-04-11T05:38:05.794Z,42
2023-04-11T05:39:11.885Z,42
2023-04-11T05:40:18.006Z,42
2023-04-11T05:41:24.140Z,42
2023-04-11T05:42:30.222Z,42
2023-04-11T05:43:36.346Z,42
2023-04-11T05:44:42.453Z,42
2023-04-11T05:45:48.563Z,41.5
2023-04-11T05:46:54.686Z,41.5
2023-04-11T05:48:00.796Z,41.5
2023-04-11T05:49:05.937Z,41.5
2023-04-11T05:50:12.044Z,42
2023-04-11T05:51:18.154Z,41.5
2023-04-11T05:52:24.273Z,42
2023-04-11T05:53:30.385Z,41.5
2023-04-11T05:54:36.491Z,41.5
2023-04-11T05:55:42.617Z,41.5
2023-04-11T05:56:47.748Z,41.5
2023-04-11T05:57:52.877Z,41.5
2023-04-11T05:58:58.983Z,41.5
2023-04-11T06:00:05.097Z,41.5
2023-04-11T06:01:10.242Z,41.5
2023-04-11T06:02:15.384Z,41.5
2023-04-11T06:03:21.492Z,41.5
2023-04-11T06:04:27.593Z,41.5
2023-04-11T06:05:33.722Z,42
2023-04-11T06:06:39.835Z,41.5
2023-04-11T06:07:45.934Z,41.5
2023-04-11T06:08:52.060Z,41.5
2023-04-11T06:09:58.160Z,42
2023-04-11T06:11:04.275Z,41.5
2023-04-11T06:12:10.400Z,41.5
2023-04-11T06:13:16.505Z,41.5
2023-04-11T06:14:22.612Z,42
2023-04-11T06:15:28.757Z,41.5
2023-04-11T06:16:33.862Z,42
2023-04-11T06:17:39.979Z,41.5
2023-04-11T06:18:46.091Z,42
2023-04-11T06:19:52.216Z,42
2023-04-11T06:20:58.317Z,42
2023-04-11T06:22:04.430Z,42
2023-04-11T06:23:10.548Z,42
2023-04-11T06:24:15.682Z,42
2023-04-11T06:25:20.823Z,42
2023-04-11T06:26:25.947Z,42
2023-04-11T06:27:31.078Z,42
2023-04-11T06:28:37.185Z,42
2023-04-11T06:29:43.308Z,42
2023-04-11T06:30:49.429Z,42
2023-04-11T06:31:55.529Z,42
2023-04-11T06:33:01.657Z,42
2023-04-11T06:34:07.773Z,42
2023-04-11T06:35:13.884Z,42
2023-04-11T06:36:19.988Z,42
2023-04-11T06:37:26.110Z,42
2023-04-11T06:38:32.218Z,42
2023-04-11T06:39:38.330Z,42
2023-04-11T06:40:44.447Z,42
2023-04-11T06:41:49.575Z,42
2023-04-11T06:42:55.696Z,42
2023-04-11T06:44:01.809Z,42
2023-04-11T06:45:07.921Z,42
2023-04-11T06:46:14.046Z,42
2023-04-11T06:47:20.149Z,42
2023-04-11T06:48:26.265Z,41.5
2023-04-11T06:49:31.398Z,42
2023-04-11T06:50:36.528Z,42
2023-04-11T06:51:42.647Z,42
2023-04-11T06:52:47.786Z,42
2023-04-11T06:53:52.905Z,42
2023-04-11T06:54:59.025Z,42
2023-04-11T06:56:05.131Z,42
2023-04-11T06:57:11.245Z,42
2023-04-11T06:58:17.350Z,42
2023-04-11T06:59:23.486Z,42
2023-04-11T07:00:29.580Z,42
2023-04-11T07:01:35.690Z,42
2023-04-11T07:02:41.814Z,41.5
2023-04-11T07:03:47.932Z,41.5
2023-04-11T07:04:54.041Z,41.5
2023-04-11T07:06:00.155Z,41.5
2023-04-11T07:07:06.270Z,41.5
2023-04-11T07:08:11.409Z,41.5
2023-04-11T07:09:17.521Z,41.5
2023-04-11T07:10:23.626Z,41.5
2023-04-11T07:11:29.740Z,41.5
2023-04-11T07:12:35.853Z,41.5
2023-04-11T07:13:41.990Z,41.5
2023-04-11T07:14:48.083Z,41.5
2023-04-11T07:15:53.236Z,41.5
2023-04-11T07:16:58.355Z,41.5
2023-04-11T07:18:04.469Z,41.5
2023-04-11T07:19:10.599Z,41.5
2023-04-11T07:20:16.710Z,41.5
2023-04-11T07:22:28.930Z,41.5
2023-04-11T07:23:35.039Z,41.5
2023-04-11T07:24:41.163Z,41.5
2023-04-11T07:25:47.274Z,41.5
2023-04-11T07:26:53.509Z,41.5
2023-04-11T07:27:59.492Z,41.5
2023-04-11T07:29:05.608Z,41.5
2023-04-11T07:30:11.732Z,41.5
2023-04-11T07:31:16.874Z,41.5
2023-04-11T07:32:22.981Z,41.5
2023-04-11T07:33:29.082Z,41.5
2023-04-11T07:34:35.203Z,41.5
2023-04-11T07:35:41.320Z,41.5
2023-04-11T07:36:47.430Z,41.5
2023-04-11T07:37:53.544Z,41.5
2023-04-11T07:38:59.658Z,41.5
2023-04-11T07:40:04.779Z,41.5
2023-04-11T07:41:09.909Z,41.5
2023-04-11T07:42:15.062Z,41.5
2023-04-11T07:43:20.176Z,41.5
2023-04-11T07:44:26.298Z,41.5
2023-04-11T07:46:38.526Z,41.5
2023-04-11T07:47:44.630Z,41.5
2023-04-11T07:49:56.878Z,41.5
2023-04-11T07:51:02.988Z,41.5
2023-04-11T07:52:09.090Z,41.5
2023-04-11T07:53:15.206Z,41.5
2023-04-11T07:54:21.315Z,41.5
2023-04-11T07:55:27.439Z,41.5
2023-04-11T07:56:32.576Z,41.5
2023-04-11T07:57:37.701Z,41.5
2023-04-11T07:58:42.840Z,41.5
2023-04-11T07:59:47.964Z,41.5
2023-04-11T08:00:54.086Z,41.5
2023-04-11T08:02:00.195Z,41
2023-04-11T08:03:06.302Z,41.5
2023-04-11T08:04:12.428Z,41.5
2023-04-11T08:05:18.529Z,41.5
2023-04-11T08:06:24.651Z,41.5
2023-04-11T08:07:30.756Z,41.5
2023-04-11T08:08:36.892Z,41.5
2023-04-11T08:09:42.993Z,41.5
2023-04-11T08:10:48.116Z,41.5
2023-04-11T08:11:53.267Z,41.5
2023-04-11T08:12:59.378Z,41.5
2023-04-11T08:14:05.485Z,41.5
2023-04-11T08:15:11.615Z,41
2023-04-11T08:16:17.704Z,41
2023-04-11T08:17:23.833Z,41
2023-04-11T08:18:29.941Z,41
2023-04-11T08:20:42.159Z,41
2023-04-11T08:21:48.288Z,41
2023-04-11T08:22:54.386Z,41
2023-04-11T08:24:00.514Z,41
2023-04-11T08:25:06.625Z,41
2023-04-11T08:26:11.774Z,41
2023-04-11T08:27:17.868Z,41
2023-04-11T08:28:23.983Z,41
2023-04-11T08:29:30.098Z,41
2023-04-11T08:30:36.198Z,41
2023-04-11T08:31:42.318Z,41
2023-04-11T08:32:48.439Z,41
2023-04-11T08:33:53.596Z,41
2023-04-11T08:34:58.705Z,41
2023-04-11T08:36:03.842Z,41
2023-04-11T08:37:09.961Z,41
2023-04-11T08:38:15.180Z,41
2023-04-11T08:39:20.282Z,41
2023-04-11T08:40:26.334Z,41
2023-04-11T08:41:32.448Z,41
2023-04-11T08:42:38.569Z,41
2023-04-11T08:43:44.672Z,41
2023-04-11T08:44:50.784Z,41
2023-04-11T08:45:56.893Z,41
2023-04-11T08:47:03.019Z,41
2023-04-11T08:48:09.126Z,41
2023-04-11T08:49:15.233Z,41
2023-04-11T08:50:21.360Z,41
2023-04-11T08:51:27.456Z,41
2023-04-11T08:52:33.574Z,41
2023-04-11T08:53:38.720Z,41
2023-04-11T08:54:44.827Z,41
2023-04-11T08:55:51.011Z,41
2023-04-11T08:56:57.060Z,41
2023-04-11T08:58:03.207Z,41
2023-04-11T08:59:09.284Z,41
2023-04-11T09:00:15.400Z,41
2023-04-11T09:01:20.538Z,41
2023-04-11T09:02:25.667Z,41
2023-04-11T09:04:37.891Z,41
2023-04-11T09:05:44.006Z,41
2023-04-11T09:06:50.116Z,41
2023-04-11T09:07:56.230Z,41
2023-04-11T09:09:02.342Z,41
2023-04-11T09:10:08.712Z,41
2023-04-11T09:11:14.576Z,41
2023-04-11T09:12:20.692Z,41
2023-04-11T09:13:26.868Z,41
2023-04-11T09:15:39.029Z,41
2023-04-11T09:16:44.161Z,41
2023-04-11T09:17:49.288Z,41
2023-04-11T09:18:54.436Z,41
2023-04-11T09:21:05.707Z,41
2023-04-11T09:22:11.788Z,41
2023-04-11T09:23:17.910Z,41
2023-04-11T09:24:24.012Z,41
2023-04-11T09:26:36.241Z,41
2023-04-11T09:27:42.362Z,41
2023-04-11T09:28:48.470Z,41
2023-04-11T09:29:54.586Z,41
2023-04-11T09:31:00.709Z,41
2023-04-11T09:32:06.812Z,41
2023-04-11T09:33:12.956Z,41
2023-04-11T09:34:18.057Z,41
2023-04-11T09:35:24.180Z,41
2023-04-11T09:36:30.320Z,41
2023-04-11T09:37:36.409Z,41
2023-04-11T09:38:42.520Z,41
2023-04-11T09:39:48.631Z,41
2023-04-11T09:40:54.730Z,41
2023-04-11T09:43:06.984Z,41
2023-04-11T09:44:13.084Z,41
2023-04-11T09:45:18.209Z,41
2023-04-11T09:46:23.343Z,41
2023-04-11T09:47:28.493Z,41
2023-04-11T09:48:33.644Z,41
2023-04-11T09:49:39.726Z,41
2023-04-11T09:50:45.862Z,41
2023-04-11T09:51:51.988Z,41
2023-04-11T09:54:04.177Z,41
2023-04-11T09:55:10.297Z,41
2023-04-11T09:56:16.444Z,41
2023-04-11T09:57:22.527Z,41
2023-04-11T09:58:28.658Z,41
2023-04-11T10:00:40.873Z,41
2023-04-11T10:01:46.012Z,41
2023-04-11T10:02:51.146Z,41
2023-04-11T10:03:57.249Z,41
2023-04-11T10:06:09.466Z,41
2023-04-11T10:07:15.587Z,41
2023-04-11T10:08:21.694Z,41
2023-04-11T10:09:27.815Z,41
2023-04-11T10:10:33.932Z,41
2023-04-11T10:11:40.040Z,41
2023-04-11T10:12:46.161Z,41
2023-04-11T10:13:52.297Z,41
2023-04-11T10:14:58.387Z,41
2023-04-11T10:16:04.496Z,41
2023-04-11T10:17:09.618Z,41
2023-04-11T10:18:15.764Z,41
2023-04-11T10:19:21.862Z,41
2023-04-11T10:20:27.973Z,41
2023-04-11T10:21:34.080Z,41
2023-04-11T10:22:40.189Z,41
2023-04-11T10:23:46.314Z,41
2023-04-11T10:24:52.421Z,41
2023-04-11T10:25:58.550Z,41
2023-04-11T10:29:15.904Z,41
2023-04-11T10:30:21.043Z,41
2023-04-11T10:31:26.163Z,41
2023-04-11T10:32:31.298Z,41
2023-04-11T10:33:37.444Z,41
2023-04-11T10:34:42.558Z,41
2023-04-11T10:35:48.653Z,41
2023-04-11T10:36:54.772Z,41
2023-04-11T10:39:07.007Z,41
2023-04-11T10:40:13.121Z,41
2023-04-11T10:41:19.224Z,41
2023-04-11T10:42:25.339Z,41
2023-04-11T10:43:31.543Z,41
2023-04-11T10:44:37.573Z,41
2023-04-11T10:45:43.714Z,41
2023-04-11T10:46:49.945Z,41
2023-04-11T10:47:56.058Z,41
2023-04-11T10:49:01.250Z,41
2023-04-11T10:50:07.161Z,41
2023-04-11T10:52:19.527Z,41
2023-04-11T10:53:25.655Z,41
2023-04-11T10:54:31.629Z,41
2023-04-11T10:55:37.912Z,41
2023-04-11T10:56:43.998Z,41
2023-04-11T10:57:49.118Z,41
2023-04-11T10:58:54.239Z,41
2023-04-11T10:59:59.453Z,41
2023-04-11T11:01:04.540Z,41
2023-04-11T11:02:10.579Z,41
2023-04-11T11:04:22.917Z,41
2023-04-11T11:09:53.448Z,41
2023-04-11T11:10:59.402Z,41
2023-04-11T11:13:11.729Z,41
2023-04-11T11:14:17.931Z,41
2023-04-11T11:16:29.195Z,41
2023-04-11T11:18:41.382Z,41
2023-04-11T11:19:47.466Z,41
2023-04-11T11:20:53.562Z,41
2023-04-11T11:23:05.830Z,41
2023-04-11T11:24:11.900Z,41
2023-04-11T11:25:17.879Z,41
2023-04-11T11:26:24.112Z,41
2023-04-11T11:28:36.438Z,41
2023-04-11T11:29:41.585Z,41
2023-04-11T11:30:47.624Z,41
2023-04-11T11:31:53.747Z,41
2023-04-11T11:34:06.098Z,41
2023-04-11T11:37:25.860Z,41
2023-04-11T11:38:30.493Z,41
2023-04-11T11:39:35.646Z,41
2023-04-11T11:40:40.739Z,41
2023-04-11T11:41:46.839Z,41
2023-04-11T11:42:52.945Z,41
2023-04-11T11:43:59.070Z,41
2023-04-11T11:45:05.143Z,41
2023-04-11T11:46:11.254Z,40.5
2023-04-11T11:47:17.438Z,41
2023-04-11T11:50:35.752Z,40.5
2023-04-11T11:51:41.828Z,40.5
2023-04-11T11:52:47.951Z,40.5
2023-04-11T11:53:54.060Z,40.5
2023-04-11T11:54:59.214Z,40.5
2023-04-11T11:56:05.293Z,40.5
2023-04-11T11:57:11.467Z,40.5
2023-04-11T11:58:17.582Z,40.5
2023-04-11T11:59:23.656Z,40.5
2023-04-11T12:01:35.901Z,40.5
2023-04-11T12:02:41.840Z,40.5
2023-04-11T12:03:48.067Z,40.5
2023-04-11T12:04:54.249Z,40.5
2023-04-11T12:07:05.512Z,40.5
2023-04-11T12:08:10.665Z,40.5
2023-04-11T12:10:21.838Z,40.5
2023-04-11T12:11:26.968Z,40.5
2023-04-11T12:12:32.153Z,40.5
2023-04-11T12:13:37.240Z,40.5
2023-04-11T12:14:42.379Z,40.5
2023-04-11T12:15:48.496Z,40.5
2023-04-11T12:16:54.631Z,40.5
2023-04-11T12:18:00.572Z,40.5
2023-04-11T12:19:06.878Z,40.5
2023-04-11T12:20:13.002Z,40.5
2023-04-11T12:21:19.050Z,40.5
2023-04-11T12:22:25.179Z,40.5
2023-04-11T12:23:31.319Z,40.5
2023-04-11T12:24:37.257Z,40
2023-04-11T12:25:42.391Z,40
2023-04-11T12:26:47.687Z,40.5
2023-04-11T12:27:53.809Z,40.5
2023-04-11T12:28:59.902Z,40.5
2023-04-11T12:30:06.046Z,40.5
2023-04-11T12:31:12.171Z,40.5
2023-04-11T12:32:18.303Z,40.5
2023-04-11T12:33:24.362Z,40.5
2023-04-11T12:34:30.521Z,40.5
2023-04-11T12:35:36.599Z,40
2023-04-11T12:36:42.687Z,40
2023-04-11T12:37:47.694Z,40
2023-04-11T12:38:52.807Z,40
2023-04-11T12:39:59.084Z,40
2023-04-11T12:41:05.173Z,40
2023-04-11T12:42:11.287Z,40
2023-04-11T12:43:17.423Z,40
2023-04-11T12:53:12.462Z,40
2023-04-11T12:54:17.423Z,40
2023-04-11T12:55:23.782Z,40
2023-04-11T12:56:29.796Z,40
2023-04-11T12:57:35.943Z,40
2023-04-11T12:58:41.089Z,40
2023-04-11T12:59:46.213Z,40
2023-04-11T13:00:52.319Z,40
2023-04-11T13:01:58.431Z,40
2023-04-11T13:03:04.493Z,40
2023-04-11T13:04:10.652Z,40
2023-04-11T13:05:16.809Z,40
2023-04-11T13:06:22.871Z,40
2023-04-11T13:07:28.973Z,40
2023-04-11T13:08:35.131Z,40
2023-04-11T13:10:47.340Z,40
2023-04-11T13:11:53.470Z,40
2023-04-11T13:13:00.100Z,40
2023-04-11T13:14:04.685Z,40
2023-04-11T13:15:10.778Z,40
2023-04-11T13:16:17.105Z,40
2023-04-11T13:17:22.983Z,40
2023-04-11T13:18:29.155Z,40
2023-04-11T13:19:35.242Z,40
2023-04-11T13:20:41.391Z,40
2023-04-11T13:22:53.708Z,40
2023-04-11T13:23:58.749Z,40
2023-04-11T13:25:04.162Z,40
2023-04-11T13:26:09.990Z,40
2023-04-11T13:27:16.120Z,40
2023-04-11T13:28:22.243Z,40
2023-04-11T13:29:28.313Z,40
2023-04-11T13:30:34.436Z,40
2023-04-11T13:31:40.607Z,40
2023-04-11T13:32:46.715Z,40
2023-04-11T13:33:52.771Z,40
2023-04-11T13:34:58.809Z,40
2023-04-11T13:36:04.082Z,40
2023-04-11T13:37:09.361Z,40.5
2023-04-11T13:38:14.635Z,40
2023-04-11T13:39:19.428Z,40.5
2023-04-11T13:40:25.528Z,40.5
2023-04-11T13:41:31.653Z,40.5
2023-04-11T13:42:37.598Z,40.5
2023-04-11T13:43:43.729Z,40.5
2023-04-11T13:44:50.047Z,40.5
2023-04-11T13:45:55.990Z,40.5
2023-04-11T13:47:02.210Z,40.5
2023-04-11T13:48:08.676Z,40.5
2023-04-11T13:49:14.464Z,40.5
2023-04-11T13:50:19.625Z,40.5
2023-04-11T13:51:24.730Z,40.5
2023-04-11T13:52:30.895Z,40.5
2023-04-11T13:53:37.008Z,40.5
2023-04-11T13:54:43.038Z,40.5
2023-04-11T13:55:49.199Z,40.5
2023-04-11T13:56:55.306Z,40.5
2023-04-11T13:58:01.457Z,40.5
2023-04-11T13:59:07.388Z,40.5
2023-04-11T14:00:13.590Z,40.5
2023-04-11T14:01:19.699Z,40.5
2023-04-11T14:02:25.803Z,40.5
2023-04-11T14:03:31.954Z,40.5
2023-04-11T14:04:37.943Z,40.5
2023-04-11T14:05:43.236Z,40.5
2023-04-11T14:06:49.161Z,40.5
2023-04-11T14:07:55.448Z,40
2023-04-11T14:09:01.511Z,40
2023-04-11T14:10:07.677Z,40
2023-04-11T14:11:13.799Z,40
2023-04-11T14:12:19.852Z,40
2023-04-11T14:13:25.100Z,40
2023-04-11T14:14:30.198Z,40
2023-04-11T14:15:35.260Z,40
2023-04-11T14:16:40.421Z,40
2023-04-11T14:17:46.555Z,40
2023-04-11T14:18:52.660Z,40
2023-04-11T14:19:58.817Z,40
2023-04-11T14:21:04.877Z,40
2023-04-11T14:22:10.997Z,40
2023-04-11T14:23:17.097Z,40
2023-04-11T14:24:23.053Z,39.5
2023-04-11T14:25:29.353Z,39.5
2023-04-11T14:26:35.427Z,39.5
2023-04-11T14:27:41.584Z,39.5
2023-04-11T14:28:47.607Z,39.5
2023-04-11T14:29:53.794Z,39.5
2023-04-11T14:30:58.917Z,39.5
2023-04-11T14:32:05.018Z,39.5
2023-04-11T14:33:11.161Z,39.5
2023-04-11T14:34:17.083Z,39
2023-04-11T14:35:23.378Z,39.5
2023-04-11T14:36:29.410Z,39
2023-04-11T14:37:35.607Z,39
2023-04-11T14:38:40.561Z,39
2023-04-11T14:39:45.902Z,39
2023-04-11T14:40:51.049Z,39
2023-04-11T14:41:56.124Z,39
2023-04-11T14:43:02.238Z,38.5
2023-04-11T14:44:08.368Z,39
2023-04-11T14:45:14.488Z,39
2023-04-11T14:46:20.400Z,39
2023-04-11T14:47:26.533Z,38.5
2023-04-11T14:48:32.841Z,39
2023-04-11T14:49:39.034Z,39
2023-04-11T14:50:44.963Z,39
2023-04-11T14:51:51.152Z,39
2023-04-11T14:52:57.258Z,39
2023-04-11T14:54:03.374Z,39
2023-04-11T14:55:09.489Z,39
2023-04-11T14:56:14.596Z,39
2023-04-11T14:57:20.724Z,39
2023-04-11T14:58:26.908Z,39
2023-04-11T14:59:32.845Z,39
2023-04-11T15:00:39.061Z,39
2023-04-11T15:01:45.302Z,39
2023-04-11T15:02:51.313Z,39
2023-04-11T15:03:56.343Z,39
2023-04-11T15:05:01.604Z,38.5
2023-04-11T15:06:07.689Z,39
2023-04-11T15:07:12.872Z,38.5
2023-04-11T15:08:17.970Z,38.5
2023-04-11T15:09:24.133Z,38.5
2023-04-11T15:10:30.206Z,38.5
2023-04-11T15:11:36.286Z,38.5
2023-04-11T15:12:42.400Z,38.5
2023-04-11T15:13:48.358Z,38.5
2023-04-11T15:14:54.627Z,38.5
2023-04-11T15:16:00.724Z,38.5
2023-04-11T15:17:06.840Z,38.5
2023-04-11T15:18:12.995Z,38.5
2023-04-11T15:19:19.083Z,38.5
2023-04-11T15:20:25.204Z,38.5
2023-04-11T15:21:31.159Z,38.5
2023-04-11T15:22:36.389Z,38.5
2023-04-11T15:23:42.586Z,38.5
2023-04-11T15:24:48.689Z,38.5
2023-04-11T15:25:54.632Z,38.5
2023-04-11T15:27:00.915Z,38.5
2023-04-11T15:28:07.049Z,38.5
2023-04-11T15:29:13.137Z,38.5
2023-04-11T15:30:18.312Z,38.5
2023-04-11T15:31:23.221Z,38.5
2023-04-11T15:32:29.388Z,39
2023-04-11T15:33:34.592Z,38.5
2023-04-11T15:34:39.784Z,38.5
2023-04-11T15:35:45.936Z,38.5
2023-04-11T15:36:52.012Z,38.5
2023-04-11T15:37:58.147Z,38.5
2023-04-11T15:39:04.198Z,38.5
2023-04-11T15:41:16.451Z,38.5
2023-04-11T15:42:22.571Z,38.5
2023-04-11T15:43:28.691Z,38.5
2023-04-11T15:44:34.762Z,38.5
2023-04-11T15:45:40.920Z,38.5
2023-04-11T15:46:47.100Z,38.5
2023-04-11T15:47:53.166Z,38.5
2023-04-11T15:48:58.261Z,38.5
2023-04-11T15:50:04.360Z,38.5
2023-04-11T15:51:10.532Z,38.5
2023-04-11T15:52:16.620Z,38.5
2023-04-11T15:53:22.738Z,38.5
2023-04-11T15:54:28.823Z,38.5
2023-04-11T15:55:33.799Z,38.5
2023-04-11T15:56:40.085Z,38.5
2023-04-11T15:57:45.217Z,38.5
2023-04-11T15:58:50.304Z,38.5
2023-04-11T15:59:56.398Z,38.5
2023-04-11T16:01:02.609Z,38.5
2023-04-11T16:02:08.556Z,38.5
2023-04-11T16:03:14.639Z,38.5
2023-04-11T16:04:20.901Z,38.5
2023-04-11T16:05:26.980Z,38.5
2023-04-11T16:06:33.129Z,38.5
2023-04-11T16:07:39.257Z,38.5
2023-04-11T16:08:45.393Z,38.5
2023-04-11T16:09:51.485Z,38.5